Time;durP1;ratioP1;P1;durP2;ratioP2;P2;SDS_P1;SDS_P2;PMS_P1;PMS_P2;Temp;Humidity;BMP_temperature;BMP_pressure;BME280_temperature;BME280_humidity;BME280_pressure;Samples;Min_cycle;Max_cycle;Signal;HPM_P1;HPM_P2
2022/09/18 00:06:39;;;;;;;1.57;0.63;;;;;;;9.02;100.00;98063.28;18418163;32;20049;-61
2022/09/18 00:16:42;;;;;;;;;;;;;;;8.87;100.00;98057.69;18432586;32;20087;-61
2022/09/18 00:26:45;;;;;;;2.83;0.70;;;;;;;8.72;100.00;98051.03;18432106;32;19992;-61
2022/09/18 00:36:47;;;;;;;2.97;0.80;;;;;;;8.61;100.00;98046.56;18357727;32;20111;-61
2022/09/18 00:46:50;;;;;;;1.13;0.50;;;;;;;8.48;100.00;98050.41;18357677;32;20084;-61
2022/09/18 00:56:58;;;;;;;4.03;0.70;;;;;;;8.40;100.00;98035.44;18357196;32;20066;-61
2022/09/18 01:07:17;;;;;;;2.63;0.57;;;;;;;8.41;100.00;98037.06;18368624;32;20094;-61
2022/09/18 01:17:38;;;;;;;0.90;0.50;;;;;;;8.35;100.00;98029.97;18280479;32;20489;-60
2022/09/18 01:27:40;;;;;;;1.07;0.47;;;;;;;8.29;100.00;98031.78;18293295;32;20374;-61
2022/09/18 01:37:56;;;;;;;3.40;0.40;;;;;;;8.21;100.00;98036.75;18298019;32;20130;-61
2022/09/18 01:48:07;;;;;;;6.60;0.63;;;;;;;8.20;100.00;98035.13;18318210;32;20374;-61
2022/09/18 01:58:19;;;;;;;5.53;0.70;;;;;;;8.21;100.00;98037.59;18303221;32;20115;-61
2022/09/18 02:08:30;;;;;;;3.13;0.80;;;;;;;8.13;100.00;98024.53;18303020;32;20065;-61
2022/09/18 02:18:40;;;;;;;2.33;0.43;;;;;;;8.16;100.00;98024.03;18302401;32;20066;-61
2022/09/18 02:28:44;;;;;;;0.83;0.40;;;;;;;8.10;100.00;98025.03;18314765;32;20395;-61
2022/09/18 02:38:50;;;;;;;0.73;0.30;;;;;;;8.02;100.00;98022.75;18438285;32;20057;-61
2022/09/18 02:49:43;;;;;;;2.03;0.63;;;;;;;7.93;100.00;98025.84;18437974;32;20095;-61
2022/09/18 02:59:53;;;;;;;2.37;0.50;;;;;;;7.87;100.00;98026.78;17926851;33;20075;-61
2022/09/18 03:09:55;;;;;;;2.93;0.63;;;;;;;7.89;100.00;98027.34;17866368;33;20083;-61
2022/09/18 03:19:57;;;;;;;3.50;0.40;;;;;;;7.82;100.00;98025.91;17865732;33;20072;-61
2022/09/18 03:30:00;;;;;;;1.03;0.30;;;;;;;7.75;100.00;98018.78;17954188;32;20117;-60
2022/09/18 03:40:02;;;;;;;3.60;0.50;;;;;;;7.68;100.00;98025.41;18354696;32;20335;-61
2022/09/18 03:50:06;;;;;;;2.03;0.80;;;;;;;7.65;100.00;98015.94;18369494;32;20114;-61
2022/09/18 04:00:09;;;;;;;4.33;0.60;;;;;;;7.64;100.00;98027.75;18437869;32;20054;-61
2022/09/18 04:10:11;;;;;;;5.00;0.53;;;;;;;7.61;100.00;98022.84;18490739;32;20097;-61
2022/09/18 04:20:14;;;;;;;1.60;0.67;;;;;;;7.54;100.00;98023.00;18483108;32;20132;-61
2022/09/18 04:30:16;;;;;;;2.07;0.40;;;;;;;7.43;100.00;98029.25;18496264;32;20130;-63
2022/09/18 04:40:19;;;;;;;2.83;0.40;;;;;;;7.39;100.00;98028.09;18481771;32;20057;-61
2022/09/18 04:50:21;;;;;;;2.00;0.60;;;;;;;7.23;100.00;98014.34;18495799;32;20045;-60
2022/09/18 05:00:24;;;;;;;0.80;0.30;;;;;;;7.16;100.00;98015.56;18480953;32;20072;-61
2022/09/18 05:10:27;;;;;;;2.50;0.50;;;;;;;7.11;100.00;98025.16;18497395;32;20098;-60
2022/09/18 05:20:30;;;;;;;4.47;0.60;;;;;;;7.12;100.00;98036.72;18493907;32;20049;-61
2022/09/18 05:30:32;;;;;;;2.57;0.40;;;;;;;6.97;100.00;98047.97;18506978;32;20113;-60
2022/09/18 05:40:36;;;;;;;0.97;0.30;;;;;;;6.87;100.00;98053.97;18506067;32;20087;-60
2022/09/18 05:50:41;;;;;;;3.13;0.50;;;;;;;6.84;100.00;98058.97;18505517;32;20075;-61
2022/09/18 06:00:44;;;;;;;1.57;0.57;;;;;;;6.88;100.00;98069.03;18504598;32;20068;-61
2022/09/18 06:10:47;;;;;;;1.00;0.40;;;;;;;7.05;100.00;98077.19;18504527;32;20087;-61
2022/09/18 06:20:55;;;;;;;4.93;0.80;;;;;;;7.22;100.00;98082.66;18503654;32;20053;-61
2022/09/18 06:30:58;;;;;;;1.63;0.57;;;;;;;7.52;100.00;98094.25;18503386;32;20391;-60
2022/09/18 06:41:01;;;;;;;1.17;0.50;;;;;;;7.89;100.00;98101.94;18502560;32;20053;-61
2022/09/18 06:51:03;;;;;;;2.07;0.70;;;;;;;8.27;100.00;98111.22;18488275;32;20049;-61
2022/09/18 07:01:06;;;;;;;3.13;0.70;;;;;;;8.62;100.00;98102.91;18500952;32;20091;-60
2022/09/18 07:11:08;;;;;;;4.37;0.70;;;;;;;8.98;100.00;98099.91;18349731;32;20493;-60
2022/09/18 07:21:10;;;;;;;0.83;0.47;;;;;;;9.32;100.00;98107.91;18362091;32;20190;-61
2022/09/18 07:31:13;;;;;;;3.13;0.50;;;;;;;9.73;100.00;98099.44;18361132;32;20069;-61
2022/09/18 07:41:16;;;;;;;2.77;0.70;;;;;;;10.04;100.00;98100.56;18380394;32;20061;-61
2022/09/18 07:51:19;;;;;;;1.67;0.63;;;;;;;10.31;92.84;98100.56;18498236;32;20072;-61
2022/09/18 08:01:27;;;;;;;2.17;0.50;;;;;;;10.81;96.88;98101.22;18497466;32;20072;-61
2022/09/18 08:11:29;;;;;;;2.80;0.57;;;;;;;11.22;93.06;98119.56;18483128;32;20123;-61
2022/09/18 08:21:32;;;;;;;2.92;0.50;;;;;;;11.64;84.97;98123.28;18482534;32;20057;-61
2022/09/18 08:31:34;;;;;;;2.30;0.50;;;;;;;11.96;87.62;98125.84;18496701;32;20361;-61
2022/09/18 08:42:06;;;;;;;4.15;0.43;;;;;;;12.23;83.24;98129.41;18494177;32;20048;-61
2022/09/18 08:52:14;;;;;;;2.70;0.43;;;;;;;12.49;75.97;98114.78;18477701;32;20436;-61
2022/09/18 09:02:20;;;;;;;1.05;0.40;;;;;;;12.92;79.85;98111.75;18494446;32;20064;-61
2022/09/18 09:12:37;;;;;;;2.45;0.50;;;;;;;13.13;75.45;98107.09;18494943;32;20116;-61
2022/09/18 09:22:53;;;;;;;2.30;0.40;;;;;;;13.35;75.69;98114.09;18494989;32;20053;-61
2022/09/18 09:33:14;;;;;;;3.92;0.57;;;;;;;13.61;70.55;98114.00;18494401;32;20076;-61
2022/09/18 09:43:43;;;;;;;1.65;0.47;;;;;;;13.92;70.06;98111.13;18493692;32;20069;-61
2022/09/18 09:53:45;;;;;;;1.48;0.43;;;;;;;14.26;68.15;98105.72;18479437;32;20160;-61
2022/09/18 10:04:33;;;;;;;1.85;0.30;;;;;;;14.23;68.89;98103.59;18503978;32;20060;-61
2022/09/18 10:14:40;;;;;;;3.28;0.43;;;;;;;14.07;70.51;98098.25;18302223;32;20161;-61
2022/09/18 10:25:01;;;;;;;2.95;0.30;;;;;;;14.41;67.09;98094.72;18301742;32;20222;-62
2022/09/18 10:35:25;;;;;;;1.52;0.40;;;;;;;14.65;65.98;98069.53;18288471;32;20088;-61
2022/09/18 10:45:36;;;;;;;1.07;0.27;;;;;;;14.74;62.96;98072.44;18382374;32;20433;-61
2022/09/18 10:55:48;;;;;;;1.25;0.22;;;;;;;14.51;66.16;98061.19;18501709;32;20108;-61
2022/09/18 11:06:00;;;;;;;1.12;0.20;;;;;;;14.17;70.08;98042.97;18500560;32;20053;-61
2022/09/18 11:16:04;;;;;;;1.35;0.20;;;;;;;14.28;65.87;98038.28;18500220;32;20113;-61
2022/09/18 11:26:26;;;;;;;0.85;0.30;;;;;;;14.87;62.84;98027.41;18499799;32;20049;-61
2022/09/18 11:36:31;;;;;;;2.60;0.45;;;;;;;15.64;64.65;98028.34;18485317;32;20079;-61
2022/09/18 11:46:52;;;;;;;3.08;0.37;;;;;;;16.48;64.25;98022.13;18498802;32;20057;-62
2022/09/18 11:57:02;;;;;;;1.87;0.22;;;;;;;16.62;52.24;98007.69;18497654;32;20072;-61
2022/09/18 12:07:22;;;;;;;1.75;0.62;;;;;;;17.03;58.69;97996.78;18497543;32;20061;-61
2022/09/18 12:17:54;;;;;;;1.33;0.40;;;;;;;17.54;54.45;97988.63;18496891;32;20052;-61
2022/09/18 12:28:21;;;;;;;1.80;0.40;;;;;;;17.95;54.39;97979.50;18482501;32;20111;-61
2022/09/18 12:38:59;;;;;;;1.80;0.60;;;;;;;18.21;59.81;97968.75;18481986;32;20365;-62
2022/09/18 12:49:20;;;;;;;2.17;0.22;;;;;;;18.85;56.12;97970.31;18495552;32;20057;-61
2022/09/18 12:59:56;;;;;;;1.35;0.30;;;;;;;18.76;56.62;97955.75;18494755;32;20045;-61
2022/09/18 13:10:10;;;;;;;1.77;0.32;;;;;;;19.20;57.24;97947.69;18480768;32;20079;-61
2022/09/18 13:20:15;;;;;;;;;;;;;;;19.26;45.10;97946.44;18488456;32;20083;-61
2022/09/18 13:30:30;;;;;;;0.65;0.30;;;;;;;19.07;51.85;97933.00;18495695;32;20008;-61
2022/09/18 13:40:37;;;;;;;1.05;0.40;;;;;;;18.51;54.98;97930.69;18506401;32;20049;-61
2022/09/18 13:50:53;;;;;;;0.60;0.40;;;;;;;18.47;58.62;97921.50;18506035;32;20077;-61
2022/09/18 14:00:58;;;;;;;1.48;0.40;;;;;;;18.65;56.58;97911.44;18504936;32;20537;-61
2022/09/18 14:11:09;;;;;;;1.23;0.50;;;;;;;18.93;55.82;97895.56;18504488;32;20053;-62
2022/09/18 14:21:17;;;;;;;1.73;0.40;;;;;;;18.58;57.23;97900.94;18504154;32;20095;-61
2022/09/18 14:31:27;;;;;;;1.50;0.35;;;;;;;17.92;47.74;97893.41;18503450;32;20083;-61
2022/09/18 14:41:34;;;;;;;0.77;0.30;;;;;;;17.73;59.12;97899.03;18488602;32;20108;-61
2022/09/18 14:51:43;;;;;;;1.35;0.30;;;;;;;17.13;51.25;97893.88;18502242;32;20361;-61
2022/09/18 15:02:30;;;;;;;0.95;0.30;;;;;;;17.29;60.53;97889.69;18501101;32;20045;-60
2022/09/18 15:12:35;;;;;;;1.58;0.30;;;;;;;17.07;56.71;97876.81;18480559;32;20053;-61
2022/09/18 15:22:38;;;;;;;1.80;0.37;;;;;;;16.54;59.86;97881.72;18298498;32;20062;-61
2022/09/18 15:32:46;;;;;;;1.80;0.50;;;;;;;16.38;63.88;97877.66;18297944;32;20519;-61
2022/09/18 15:43:26;;;;;;;5.55;0.52;;;;;;;16.18;66.99;97862.50;18171750;32;20550;-61
2022/09/18 15:53:29;;;;;;;0.93;0.52;;;;;;;15.91;70.71;97859.44;18333900;32;20061;-61
2022/09/18 16:03:39;;;;;;;1.33;0.60;;;;;;;15.71;65.61;97870.66;18359293;32;20089;-61
2022/09/18 16:13:42;;;;;;;0.98;0.40;;;;;;;15.44;66.93;97869.44;18422608;32;20057;-61
2022/09/18 16:23:55;;;;;;;2.28;0.40;;;;;;;15.16;73.20;97860.38;18430898;32;20117;-61
2022/09/18 16:34:04;;;;;;;3.95;0.40;;;;;;;14.89;77.61;97854.47;18432328;32;20049;-61
2022/09/18 16:44:10;;;;;;;1.30;0.30;;;;;;;14.60;77.52;97849.13;18432049;32;20093;-61
2022/09/18 16:54:13;;;;;;;1.40;0.47;;;;;;;14.28;78.35;97847.03;18431592;32;20064;-61
2022/09/18 17:04:15;;;;;;;0.70;0.35;;;;;;;14.00;79.74;97850.34;18430466;32;20393;-60
2022/09/18 17:14:18;;;;;;;0.80;0.20;;;;;;;13.79;82.06;97843.50;18443875;32;20042;-61
2022/09/18 17:24:26;;;;;;;1.35;0.37;;;;;;;13.53;82.33;97844.53;18442916;32;20106;-61
2022/09/18 17:34:29;;;;;;;1.20;0.35;;;;;;;13.32;81.54;97845.75;18441595;32;20064;-61
2022/09/18 17:44:33;;;;;;;3.05;0.40;;;;;;;13.13;83.04;97849.16;18432276;32;20061;-61
2022/09/18 17:54:36;;;;;;;0.73;0.40;;;;;;;12.96;84.71;97856.88;18419105;32;20065;-61
2022/09/18 18:04:39;;;;;;;1.77;0.52;;;;;;;12.77;85.07;97854.81;18431111;32;20136;-61
2022/09/18 18:14:41;;;;;;;1.08;0.50;;;;;;;12.61;85.23;97881.22;18438015;32;20107;-61
2022/09/18 18:24:44;;;;;;;3.85;0.50;;;;;;;12.50;87.35;97887.78;18438999;32;20069;-61
2022/09/18 18:34:47;;;;;;;2.60;0.50;;;;;;;12.43;87.39;97900.78;18439354;32;20084;-61
2022/09/18 18:44:49;;;;;;;0.90;0.40;;;;;;;12.34;88.19;97911.41;18438192;32;20109;-61
2022/09/18 18:54:52;;;;;;;0.30;0.30;;;;;;;12.22;88.26;97916.31;18437729;32;20053;-61
2022/09/18 19:05:01;;;;;;;2.15;0.40;;;;;;;12.16;88.83;97916.31;18487262;32;20056;-61
2022/09/18 19:15:05;;;;;;;2.97;0.62;;;;;;;12.08;90.65;97932.34;18501111;32;20053;-61
2022/09/18 19:25:07;;;;;;;1.12;0.57;;;;;;;12.03;92.00;97931.25;18500371;32;20092;-61
2022/09/18 19:35:10;;;;;;;1.20;0.40;;;;;;;11.95;90.84;97937.22;18347992;32;20477;-61
2022/09/18 19:45:17;;;;;;;1.33;0.55;;;;;;;11.95;90.14;97931.81;18361234;32;20066;-61
2022/09/18 19:55:20;;;;;;;0.62;0.25;;;;;;;11.93;87.86;97938.56;18360542;32;20069;-61
2022/09/18 20:05:22;;;;;;;1.20;0.60;;;;;;;11.90;88.88;97939.09;18381494;32;20059;-61
2022/09/18 20:15:25;;;;;;;4.22;0.60;;;;;;;11.89;87.03;97943.69;18483396;32;20049;-61
2022/09/18 20:25:28;;;;;;;0.80;0.40;;;;;;;11.84;88.47;97936.37;18482860;32;20475;-61
2022/09/18 20:35:30;;;;;;;0.80;0.40;;;;;;;11.80;88.17;97921.75;18481209;32;20045;-61
2022/09/18 20:45:33;;;;;;;2.45;0.68;;;;;;;11.78;89.20;97921.22;18396132;32;20096;-61
2022/09/18 20:55:35;;;;;;;2.03;0.80;;;;;;;11.80;90.06;97921.75;18421552;32;20111;-61
2022/09/18 21:05:41;;;;;;;1.95;0.40;;;;;;;11.82;91.38;97903.31;18408304;32;20102;-61
2022/09/18 21:15:47;;;;;;;0.90;0.30;;;;;;;11.86;92.66;97911.72;18239888;32;20455;-61
2022/09/18 21:25:49;;;;;;;0.70;0.30;;;;;;;11.85;90.47;97897.37;18280942;32;20092;-61
2022/09/18 21:35:53;;;;;;;0.40;0.20;;;;;;;11.87;90.91;97897.91;18167231;32;20093;-61
2022/09/18 21:46:02;;;;;;;0.57;0.20;;;;;;;11.81;89.40;97901.72;18189384;32;20066;-61
2022/09/18 21:56:08;;;;;;;1.35;0.30;;;;;;;11.79;89.16;97901.16;18362739;32;20069;-61
2022/09/18 22:06:11;;;;;;;1.55;0.35;;;;;;;11.78;88.00;97904.94;18464632;32;20053;-61
2022/09/18 22:16:13;;;;;;;6.15;0.60;;;;;;;11.78;87.86;97910.38;18504715;32;20100;-61
2022/09/18 22:26:16;;;;;;;0.75;0.32;;;;;;;11.77;86.33;97914.19;18483494;32;20058;-61
2022/09/18 22:36:19;;;;;;;1.75;0.50;;;;;;;11.76;87.75;97912.56;18489547;32;20049;-61
2022/09/18 22:46:24;;;;;;;4.55;0.82;;;;;;;11.72;86.51;97922.31;18502843;32;20064;-61
2022/09/18 22:56:27;;;;;;;0.47;0.32;;;;;;;11.68;84.33;97926.63;18488059;32;20049;-61
2022/09/18 23:06:32;;;;;;;0.70;0.40;;;;;;;11.79;82.48;97912.00;18487087;32;20083;-61
2022/09/18 23:16:35;;;;;;;0.95;0.40;;;;;;;11.81;78.83;97923.41;18362778;32;20084;-61
2022/09/18 23:26:39;;;;;;;1.23;0.47;;;;;;;11.91;81.48;97929.88;18363071;32;20065;-61
2022/09/18 23:36:44;;;;;;;1.83;0.60;;;;;;;11.87;81.89;97932.34;18361852;32;20066;-61
2022/09/18 23:46:46;;;;;;;1.70;0.52;;;;;;;11.86;83.60;97942.34;18382016;32;20134;-61
2022/09/18 23:56:49;;;;;;;1.95;0.50;;;;;;;11.84;83.25;97944.53;18347703;32;20065;-61
